Time;durP1;ratioP1;P1;durP2;ratioP2;P2;SDS_P1;SDS_P2;PMS_P1;PMS_P2;Temp;Humidity;BMP_temperature;BMP_pressure;BME280_temperature;BME280_humidity;BME280_pressure;Samples;Min_cycle;Max_cycle;Signal;HPM_P1;HPM_P2
2022/03/21 00:00:47;;;;;;;23.42;12.27;;;;;;;;;;5051034;28;20398;-64
2022/03/21 00:03:15;;;;;;;21.05;11.80;;;;;;;;;;5055231;28;20037;-63
2022/03/21 00:05:42;;;;;;;23.80;12.20;;;;;;;;;;5049969;28;20048;-64
2022/03/21 00:08:08;;;;;;;23.27;12.00;;;;;;;;;;5051740;28;20041;-64
2022/03/21 00:10:34;;;;;;;23.80;12.27;;;;;;;;;;5051975;28;20036;-65
2022/03/21 00:13:00;;;;;;;23.23;12.60;;;;;;;;;;5054300;28;20402;-64
2022/03/21 00:15:26;;;;;;;22.52;11.90;;;;;;;;;;5052969;28;20056;-63
2022/03/21 00:17:52;;;;;;;21.20;12.30;;;;;;;;;;5055451;28;20469;-63
2022/03/21 00:20:18;;;;;;;24.33;12.77;;;;;;;;;;5050157;28;20120;-63
2022/03/21 00:22:43;;;;;;;24.92;12.43;;;;;;;;;;5047822;28;20049;-64
2022/03/21 00:25:09;;;;;;;23.75;12.40;;;;;;;;;;5031581;28;20497;-63
2022/03/21 00:27:38;;;;;;;20.90;12.35;;;;;;;;;;5045609;28;20108;-63
2022/03/21 00:30:05;;;;;;;21.85;12.30;;;;;;;;;;5060676;28;20181;-64
2022/03/21 00:32:32;;;;;;;24.48;12.25;;;;;;;;;;5051395;28;20043;-64
2022/03/21 00:34:57;;;;;;;26.23;12.38;;;;;;;;;;5049846;28;20033;-63
2022/03/21 00:37:23;;;;;;;22.25;12.77;;;;;;;;;;5052035;28;20123;-63
2022/03/21 00:39:51;;;;;;;19.45;12.15;;;;;;;;;;5051580;28;20390;-63
2022/03/21 00:42:16;;;;;;;22.58;12.73;;;;;;;;;;5049436;28;20037;-63
2022/03/21 00:44:42;;;;;;;21.88;12.15;;;;;;;;;;5050999;28;20036;-64
2022/03/21 00:47:07;;;;;;;25.92;12.30;;;;;;;;;;5048981;28;20111;-63
2022/03/21 00:49:33;;;;;;;22.20;12.93;;;;;;;;;;5048382;28;20497;-63
2022/03/21 00:51:58;;;;;;;24.75;13.68;;;;;;;;;;5051898;28;20089;-63
2022/03/21 00:54:23;;;;;;;22.55;12.80;;;;;;;;;;5049914;28;20478;-63
2022/03/21 00:56:49;;;;;;;25.08;12.40;;;;;;;;;;5052131;28;20447;-63
2022/03/21 00:59:14;;;;;;;26.60;12.38;;;;;;;;;;5048760;28;20040;-64
2022/03/21 01:01:40;;;;;;;22.90;11.95;;;;;;;;;;5054676;28;20501;-64
2022/03/21 01:04:05;;;;;;;25.25;12.52;;;;;;;;;;5049548;28;20463;-63
2022/03/21 01:06:31;;;;;;;24.48;12.27;;;;;;;;;;5049126;28;20040;-64
2022/03/21 01:08:56;;;;;;;22.70;12.50;;;;;;;;;;5050546;28;20033;-63
2022/03/21 01:11:24;;;;;;;22.90;12.35;;;;;;;;;;5049606;28;20041;-63
2022/03/21 01:13:50;;;;;;;25.73;12.52;;;;;;;;;;5041176;28;20476;-63
2022/03/21 01:16:16;;;;;;;26.17;12.55;;;;;;;;;;5050175;28;20064;-64
2022/03/21 01:18:45;;;;;;;24.20;12.63;;;;;;;;;;5070621;28;20536;-64
2022/03/21 01:21:11;;;;;;;23.85;13.05;;;;;;;;;;5069361;28;20031;-63
2022/03/21 01:23:36;;;;;;;23.25;12.93;;;;;;;;;;5060189;28;20068;-64
2022/03/21 01:26:02;;;;;;;22.73;12.75;;;;;;;;;;5050308;28;20060;-63
2022/03/21 01:28:27;;;;;;;23.90;12.93;;;;;;;;;;5048086;28;20372;-64
2022/03/21 01:30:53;;;;;;;25.45;13.48;;;;;;;;;;5048919;28;20106;-64
2022/03/21 01:33:18;;;;;;;22.83;13.05;;;;;;;;;;5061711;28;20412;-63
2022/03/21 01:35:43;;;;;;;25.27;12.73;;;;;;;;;;5069751;28;20111;-63
2022/03/21 01:38:09;;;;;;;21.23;12.85;;;;;;;;;;5050949;28;20394;-63
2022/03/21 01:40:34;;;;;;;23.40;12.27;;;;;;;;;;5067368;28;20494;-63
2022/03/21 01:43:00;;;;;;;21.98;12.55;;;;;;;;;;5048261;28;20103;-64
2022/03/21 01:45:28;;;;;;;21.98;12.00;;;;;;;;;;5049886;28;20458;-64
2022/03/21 01:47:54;;;;;;;26.30;12.73;;;;;;;;;;5051989;28;20064;-63
2022/03/21 01:50:20;;;;;;;22.10;12.85;;;;;;;;;;5050770;28;20071;-63
2022/03/21 01:52:46;;;;;;;25.98;13.27;;;;;;;;;;5059676;28;20446;-64
2022/03/21 01:57:58;;;;;;;24.40;13.15;;;;;;;;;;5063774;28;20410;-63
2022/03/21 02:00:24;;;;;;;24.42;13.38;;;;;;;;;;5051035;28;20033;-64
2022/03/21 02:02:53;;;;;;;25.55;13.02;;;;;;;;;;5055092;28;20382;-65
2022/03/21 02:05:18;;;;;;;23.77;13.30;;;;;;;;;;5033804;28;20037;-63
2022/03/21 02:07:44;;;;;;;24.80;13.88;;;;;;;;;;5066951;28;20126;-63
2022/03/21 02:10:10;;;;;;;24.63;13.55;;;;;;;;;;5065902;28;20390;-63
2022/03/21 02:12:35;;;;;;;24.42;13.23;;;;;;;;;;5053276;28;20033;-62
2022/03/21 02:15:02;;;;;;;25.45;13.30;;;;;;;;;;5052381;28;20044;-62
2022/03/21 02:17:29;;;;;;;25.17;13.18;;;;;;;;;;5054320;28;20157;-64
2022/03/21 02:19:57;;;;;;;25.25;13.70;;;;;;;;;;5063795;28;20065;-62
2022/03/21 02:22:54;;;;;;;27.55;13.93;;;;;;;;;;5048422;28;20453;-64
2022/03/21 02:25:27;;;;;;;32.53;13.95;;;;;;;;;;5046518;28;20048;-63
2022/03/21 02:27:56;;;;;;;24.08;14.13;;;;;;;;;;5050489;28;20107;-63
2022/03/21 02:30:21;;;;;;;25.10;13.15;;;;;;;;;;5048398;28;20036;-63
2022/03/21 02:32:47;;;;;;;23.25;13.55;;;;;;;;;;5043031;28;20402;-63
2022/03/21 02:35:16;;;;;;;24.85;13.10;;;;;;;;;;5048323;28;20136;-62
2022/03/21 02:37:44;;;;;;;23.67;12.98;;;;;;;;;;5045302;28;20025;-63
2022/03/21 02:40:10;;;;;;;26.35;12.80;;;;;;;;;;5046267;28;20119;-63
2022/03/21 02:42:36;;;;;;;27.50;13.35;;;;;;;;;;5052117;28;20120;-63
2022/03/21 02:45:01;;;;;;;25.33;13.65;;;;;;;;;;5065050;28;20021;-63
2022/03/21 02:47:26;;;;;;;27.88;13.07;;;;;;;;;;5060402;28;20033;-63
2022/03/21 02:49:53;;;;;;;28.38;13.38;;;;;;;;;;5065532;28;20426;-63
2022/03/21 02:52:19;;;;;;;26.70;13.73;;;;;;;;;;5053659;28;20033;-64
2022/03/21 02:54:44;;;;;;;26.67;14.07;;;;;;;;;;5051950;28;20036;-63
2022/03/21 02:57:10;;;;;;;27.52;14.45;;;;;;;;;;5050528;28;20044;-63
2022/03/21 02:59:35;;;;;;;29.30;14.93;;;;;;;;;;5050097;28;20478;-64
2022/03/21 03:02:02;;;;;;;27.73;14.90;;;;;;;;;;5052257;28;20032;-63
2022/03/21 03:04:28;;;;;;;27.75;15.18;;;;;;;;;;5053351;28;20044;-63
2022/03/21 03:06:54;;;;;;;25.63;13.88;;;;;;;;;;5051491;28;20037;-63
2022/03/21 03:09:19;;;;;;;25.13;13.45;;;;;;;;;;5036424;28;20489;-63
2022/03/21 03:11:45;;;;;;;27.73;13.93;;;;;;;;;;5051889;28;20037;-64
2022/03/21 03:14:10;;;;;;;24.90;13.20;;;;;;;;;;5053227;28;20029;-63
2022/03/21 03:16:36;;;;;;;23.52;13.93;;;;;;;;;;5055597;28;20366;-63
2022/03/21 03:19:02;;;;;;;28.83;14.32;;;;;;;;;;5066125;28;20053;-62
2022/03/21 03:21:37;;;;;;;25.88;13.68;;;;;;;;;;5052414;28;20103;-65
2022/03/21 03:24:04;;;;;;;28.77;14.50;;;;;;;;;;5051432;28;20024;-63
2022/03/21 03:26:29;;;;;;;27.30;14.02;;;;;;;;;;5053007;28;20040;-62
2022/03/21 03:28:54;;;;;;;26.50;13.40;;;;;;;;;;5041737;28;20055;-64
2022/03/21 03:31:20;;;;;;;26.65;14.82;;;;;;;;;;5051587;28;20033;-64
2022/03/21 03:33:47;;;;;;;29.50;14.38;;;;;;;;;;5053083;28;20082;-63
2022/03/21 03:36:16;;;;;;;25.58;13.70;;;;;;;;;;5051876;28;20033;-63
2022/03/21 03:38:45;;;;;;;25.15;13.52;;;;;;;;;;5052342;28;20478;-63
2022/03/21 03:41:11;;;;;;;27.48;14.05;;;;;;;;;;5053729;28;20032;-63
2022/03/21 03:43:37;;;;;;;26.92;15.10;;;;;;;;;;5052597;28;20075;-63
2022/03/21 03:46:03;;;;;;;24.88;13.95;;;;;;;;;;5051450;28;20052;-63
2022/03/21 03:48:28;;;;;;;27.23;14.30;;;;;;;;;;5059702;28;20032;-63
2022/03/21 03:50:54;;;;;;;29.00;14.45;;;;;;;;;;5053668;28;20029;-63
2022/03/21 03:53:20;;;;;;;28.95;14.32;;;;;;;;;;5057511;28;20474;-62
2022/03/21 03:55:45;;;;;;;30.73;14.00;;;;;;;;;;5050992;28;20017;-64
2022/03/21 03:58:11;;;;;;;27.27;13.75;;;;;;;;;;5053791;28;20040;-64
2022/03/21 04:00:36;;;;;;;27.15;14.23;;;;;;;;;;5051583;28;20071;-63
2022/03/21 04:05:46;;;;;;;26.80;14.85;;;;;;;;;;5049798;28;20034;-62
2022/03/21 04:08:12;;;;;;;27.75;14.70;;;;;;;;;;5053641;28;20033;-63
2022/03/21 04:10:37;;;;;;;26.73;13.63;;;;;;;;;;5049831;28;20470;-63
2022/03/21 04:13:03;;;;;;;27.15;14.60;;;;;;;;;;5055512;28;20036;-62
2022/03/21 04:15:28;;;;;;;25.80;14.48;;;;;;;;;;5044216;28;20025;-63
2022/03/21 04:17:58;;;;;;;26.85;14.18;;;;;;;;;;5068857;28;20039;-63
2022/03/21 04:20:23;;;;;;;32.05;14.20;;;;;;;;;;5069890;28;20017;-62
2022/03/21 04:22:49;;;;;;;27.33;14.50;;;;;;;;;;5063569;28;20493;-63
2022/03/21 04:25:15;;;;;;;33.22;14.80;;;;;;;;;;5055959;28;20112;-62
2022/03/21 04:27:40;;;;;;;25.42;14.52;;;;;;;;;;5051692;28;20039;-65
2022/03/21 04:30:06;;;;;;;27.90;15.50;;;;;;;;;;5051747;28;20063;-66
2022/03/21 04:32:32;;;;;;;27.67;15.35;;;;;;;;;;5050725;28;20047;-66
2022/03/21 04:35:01;;;;;;;32.90;16.02;;;;;;;;;;5052565;28;20382;-64
2022/03/21 04:37:27;;;;;;;30.92;16.23;;;;;;;;;;5050859;28;20110;-62
2022/03/21 04:39:53;;;;;;;29.95;16.13;;;;;;;;;;5050123;28;20143;-62
2022/03/21 04:42:19;;;;;;;32.65;16.17;;;;;;;;;;5050678;28;20051;-62
2022/03/21 04:44:46;;;;;;;30.95;15.82;;;;;;;;;;5051476;28;20036;-63
2022/03/21 04:47:12;;;;;;;30.90;16.17;;;;;;;;;;5052478;28;20032;-65
2022/03/21 04:49:37;;;;;;;32.72;17.67;;;;;;;;;;5051406;28;20039;-63
2022/03/21 04:52:03;;;;;;;33.67;17.02;;;;;;;;;;5051819;28;20041;-62
2022/03/21 04:54:29;;;;;;;30.00;17.13;;;;;;;;;;5050588;28;20463;-62
2022/03/21 04:56:55;;;;;;;29.63;16.67;;;;;;;;;;5055353;28;20076;-62
2022/03/21 04:59:20;;;;;;;34.00;17.33;;;;;;;;;;5050272;28;20553;-63
2022/03/21 05:01:46;;;;;;;32.30;16.40;;;;;;;;;;5050611;28;20033;-69
2022/03/21 05:04:11;;;;;;;38.75;17.08;;;;;;;;;;5051224;28;20079;-68
2022/03/21 05:06:37;;;;;;;32.22;17.08;;;;;;;;;;5050003;28;20025;-71
2022/03/21 05:09:03;;;;;;;29.73;17.20;;;;;;;;;;5051236;28;20083;-69
2022/03/21 05:11:29;;;;;;;31.27;17.25;;;;;;;;;;5051003;28;20454;-68
2022/03/21 05:13:56;;;;;;;30.80;17.20;;;;;;;;;;5051982;28;20029;-71
2022/03/21 05:16:22;;;;;;;32.35;18.20;;;;;;;;;;5050602;28;20444;-69
2022/03/21 05:18:48;;;;;;;37.60;19.27;;;;;;;;;;5049913;28;20109;-70
2022/03/21 05:21:14;;;;;;;35.25;17.20;;;;;;;;;;5050926;28;20458;-70
2022/03/21 05:31:51;;;;;;;37.00;18.63;;;;;;;;;;5050926;28;20456;-71
2022/03/21 05:37:01;;;;;;;32.97;18.23;;;;;;;;;;5051894;28;20106;-69
2022/03/21 05:39:26;;;;;;;37.53;19.48;;;;;;;;;;5051028;28;20034;-70
2022/03/21 05:41:52;;;;;;;33.75;17.88;;;;;;;;;;5052170;28;20037;-70
2022/03/21 05:44:19;;;;;;;33.25;18.15;;;;;;;;;;5052028;28;20048;-70
2022/03/21 05:46:44;;;;;;;35.92;18.88;;;;;;;;;;5052148;28;20463;-70
2022/03/21 05:49:10;;;;;;;33.15;18.75;;;;;;;;;;5052239;28;20079;-70
2022/03/21 05:51:40;;;;;;;39.55;18.60;;;;;;;;;;5051410;28;20485;-70
2022/03/21 05:54:09;;;;;;;38.17;18.83;;;;;;;;;;5052056;28;20116;-70
2022/03/21 05:56:35;;;;;;;33.67;18.85;;;;;;;;;;5051575;28;20029;-71
2022/03/21 06:00:20;;;;;;;37.83;19.77;;;;;;;;;;5052052;28;20025;-71
2022/03/21 06:01:50;;;;;;;37.33;19.65;;;;;;;;;;5051573;28;20077;-72
2022/03/21 06:04:16;;;;;;;35.38;18.55;;;;;;;;;;5051545;28;20033;-73
2022/03/21 06:06:45;;;;;;;34.80;19.08;;;;;;;;;;5050131;28;20136;-70
2022/03/21 06:09:12;;;;;;;36.20;19.40;;;;;;;;;;5051721;28;20036;-70
2022/03/21 06:11:37;;;;;;;43.70;20.90;;;;;;;;;;5050985;28;20021;-71
2022/03/21 06:14:07;;;;;;;36.47;19.50;;;;;;;;;;5051851;28;20447;-70
2022/03/21 06:16:33;;;;;;;39.53;20.15;;;;;;;;;;5051234;28;20059;-70
2022/03/21 06:19:00;;;;;;;40.47;20.60;;;;;;;;;;5051574;28;20029;-70
2022/03/21 06:21:28;;;;;;;42.75;21.38;;;;;;;;;;5050883;28;20136;-71
2022/03/21 06:23:53;;;;;;;42.90;21.95;;;;;;;;;;5051992;28;20064;-70
2022/03/21 06:26:19;;;;;;;40.08;21.10;;;;;;;;;;5051705;28;20411;-70
2022/03/21 06:28:45;;;;;;;43.28;21.40;;;;;;;;;;5051500;28;20052;-70
2022/03/21 06:31:11;;;;;;;40.85;21.13;;;;;;;;;;5051809;28;20447;-71
2022/03/21 06:33:36;;;;;;;39.63;21.27;;;;;;;;;;5052258;28;20025;-70
2022/03/21 06:36:02;;;;;;;38.65;21.25;;;;;;;;;;5055557;28;20512;-70
2022/03/21 06:38:28;;;;;;;40.47;20.75;;;;;;;;;;5053624;28;20021;-70
2022/03/21 06:41:03;;;;;;;41.40;21.20;;;;;;;;;;5055595;28;20032;-70
2022/03/21 06:43:29;;;;;;;43.28;21.90;;;;;;;;;;5054702;28;20051;-69
2022/03/21 06:45:55;;;;;;;44.45;22.33;;;;;;;;;;5055613;28;20036;-69
2022/03/21 06:48:23;;;;;;;43.38;22.42;;;;;;;;;;5055374;28;20041;-70
2022/03/21 06:50:50;;;;;;;39.05;21.75;;;;;;;;;;5055217;28;20036;-69
2022/03/21 06:53:16;;;;;;;41.95;21.52;;;;;;;;;;5055176;28;20037;-70
2022/03/21 06:55:43;;;;;;;43.80;22.63;;;;;;;;;;5053377;28;20191;-69
2022/03/21 06:58:11;;;;;;;44.95;21.70;;;;;;;;;;5054009;28;20060;-69
2022/03/21 07:00:39;;;;;;;41.50;22.10;;;;;;;;;;5053200;28;20071;-70
2022/03/21 07:03:05;;;;;;;49.67;23.90;;;;;;;;;;5053397;28;20036;-67
2022/03/21 07:05:31;;;;;;;47.13;23.70;;;;;;;;;;5036187;28;20029;-69
2022/03/21 07:07:56;;;;;;;42.08;22.55;;;;;;;;;;5054692;28;20029;-71
2022/03/21 07:10:22;;;;;;;42.10;22.42;;;;;;;;;;5054845;28;20052;-70
2022/03/21 07:12:47;;;;;;;41.95;24.35;;;;;;;;;;5054202;28;20486;-69
2022/03/21 07:15:13;;;;;;;42.85;23.05;;;;;;;;;;5054478;28;20082;-69
2022/03/21 07:17:40;;;;;;;43.08;23.85;;;;;;;;;;5054211;28;20029;-70
2022/03/21 07:20:06;;;;;;;42.30;24.40;;;;;;;;;;5054504;28;20040;-70
2022/03/21 07:22:31;;;;;;;42.60;23.67;;;;;;;;;;5054073;28;20053;-70
2022/03/21 07:24:56;;;;;;;41.90;23.70;;;;;;;;;;5054308;28;20033;-70
2022/03/21 07:27:22;;;;;;;37.90;22.70;;;;;;;;;;5054644;28;20028;-70
2022/03/21 07:29:47;;;;;;;41.22;23.75;;;;;;;;;;5054005;28;20097;-69
2022/03/21 07:32:13;;;;;;;41.58;22.77;;;;;;;;;;5054860;28;20040;-70
2022/03/21 07:34:38;;;;;;;39.40;22.52;;;;;;;;;;5053275;28;20036;-70
2022/03/21 07:37:04;;;;;;;40.40;23.55;;;;;;;;;;5054771;28;20028;-69
2022/03/21 07:39:29;;;;;;;40.35;22.90;;;;;;;;;;5052366;28;20394;-68
2022/03/21 07:42:00;;;;;;;37.90;22.30;;;;;;;;;;5054216;28;20036;-70
2022/03/21 07:47:22;;;;;;;39.83;22.15;;;;;;;;;;5054101;28;20398;-70
2022/03/21 07:49:53;;;;;;;40.40;22.27;;;;;;;;;;5053662;28;20027;-70
2022/03/21 07:52:20;;;;;;;37.15;20.67;;;;;;;;;;5054220;28;20037;-69
2022/03/21 07:54:47;;;;;;;34.85;21.08;;;;;;;;;;5053354;28;20048;-69
2022/03/21 07:57:13;;;;;;;37.08;21.13;;;;;;;;;;5052857;28;20363;-70
2022/03/21 07:59:38;;;;;;;39.13;22.17;;;;;;;;;;5053170;28;20032;-68
2022/03/21 08:02:13;;;;;;;37.58;21.30;;;;;;;;;;5053843;28;20538;-68
2022/03/21 08:04:39;;;;;;;39.15;20.60;;;;;;;;;;5052796;28;20037;-69
2022/03/21 08:07:04;;;;;;;37.25;20.45;;;;;;;;;;5053880;28;20505;-70
2022/03/21 08:09:30;;;;;;;33.70;19.17;;;;;;;;;;5053280;28;20120;-70
2022/03/21 08:11:57;;;;;;;30.95;17.88;;;;;;;;;;5053960;28;20119;-69
2022/03/21 08:14:23;;;;;;;34.08;18.02;;;;;;;;;;5053647;28;20029;-70
2022/03/21 08:16:48;;;;;;;28.50;17.00;;;;;;;;;;5052750;28;20037;-70
2022/03/21 08:19:14;;;;;;;33.45;18.45;;;;;;;;;;5053728;28;20378;-70
2022/03/21 08:21:39;;;;;;;28.55;17.48;;;;;;;;;;5052699;28;20049;-68
2022/03/21 08:24:06;;;;;;;27.63;17.80;;;;;;;;;;5053707;28;20035;-69
2022/03/21 08:26:31;;;;;;;33.47;17.17;;;;;;;;;;5052888;28;20063;-70
2022/03/21 08:28:57;;;;;;;32.80;17.88;;;;;;;;;;5053492;28;20057;-69
2022/03/21 08:31:22;;;;;;;29.42;16.73;;;;;;;;;;5053109;28;20043;-68
2022/03/21 08:33:48;;;;;;;27.42;16.40;;;;;;;;;;5052940;28;20643;-70
2022/03/21 08:36:13;;;;;;;28.73;16.40;;;;;;;;;;5053324;28;20040;-69
2022/03/21 08:38:40;;;;;;;29.23;17.38;;;;;;;;;;5052637;28;20032;-70
2022/03/21 08:41:05;;;;;;;27.80;16.15;;;;;;;;;;5052990;28;20407;-68
2022/03/21 08:43:31;;;;;;;30.05;16.83;;;;;;;;;;5052449;28;20040;-65
2022/03/21 08:45:56;;;;;;;30.55;16.90;;;;;;;;;;5052598;28;20032;-68
2022/03/21 08:49:23;;;;;;;27.50;16.30;;;;;;;;;;5053112;28;20402;-68
2022/03/21 08:51:08;;;;;;;28.33;16.90;;;;;;;;;;5052608;28;20043;-70
2022/03/21 08:53:34;;;;;;;30.02;17.98;;;;;;;;;;5051934;28;20037;-65
2022/03/21 08:55:59;;;;;;;28.27;17.13;;;;;;;;;;5052882;28;20035;-64
2022/03/21 08:58:25;;;;;;;27.05;16.40;;;;;;;;;;5052741;28;20041;-70
2022/03/21 09:00:50;;;;;;;25.65;15.98;;;;;;;;;;5052041;28;20230;-70
2022/03/21 09:03:15;;;;;;;30.80;15.57;;;;;;;;;;5052869;28;20040;-69
2022/03/21 09:05:41;;;;;;;31.25;17.02;;;;;;;;;;5051867;28;20382;-68
2022/03/21 09:08:08;;;;;;;25.90;15.93;;;;;;;;;;5051695;28;20393;-70
2022/03/21 09:10:34;;;;;;;27.30;15.00;;;;;;;;;;5052085;28;20029;-68
2022/03/21 09:12:59;;;;;;;31.98;16.50;;;;;;;;;;5051311;28;20086;-70
2022/03/21 09:15:25;;;;;;;26.67;15.70;;;;;;;;;;5050854;28;20029;-70
2022/03/21 09:17:51;;;;;;;26.27;15.88;;;;;;;;;;5051929;28;20183;-68
2022/03/21 09:20:16;;;;;;;26.40;14.45;;;;;;;;;;5052244;28;20025;-69
2022/03/21 09:22:44;;;;;;;24.42;14.55;;;;;;;;;;5051845;28;20041;-68
2022/03/21 09:25:10;;;;;;;27.33;13.80;;;;;;;;;;5052579;28;20029;-68
2022/03/21 09:27:38;;;;;;;25.13;13.85;;;;;;;;;;5051844;28;20036;-68
2022/03/21 09:30:05;;;;;;;24.02;13.45;;;;;;;;;;5052415;28;20451;-69
2022/03/21 09:32:33;;;;;;;24.52;13.82;;;;;;;;;;5052432;28;20032;-70
2022/03/21 09:34:59;;;;;;;23.20;13.73;;;;;;;;;;5050492;28;20032;-69
2022/03/21 09:37:25;;;;;;;23.75;13.48;;;;;;;;;;5051008;28;20040;-70
2022/03/21 09:39:50;;;;;;;23.08;12.80;;;;;;;;;;5051579;28;20108;-69
2022/03/21 09:42:16;;;;;;;23.20;13.57;;;;;;;;;;5052247;28;20033;-69
2022/03/21 09:44:42;;;;;;;24.90;14.05;;;;;;;;;;5051504;28;20055;-68
2022/03/21 09:49:57;;;;;;;22.42;13.60;;;;;;;;;;5051719;28;20036;-68
2022/03/21 09:52:23;;;;;;;23.05;13.93;;;;;;;;;;5050895;28;20033;-69
2022/03/21 09:54:50;;;;;;;28.55;14.40;;;;;;;;;;5051067;28;20079;-69
2022/03/21 09:57:16;;;;;;;24.38;14.55;;;;;;;;;;5051580;28;20044;-69
2022/03/21 09:59:42;;;;;;;26.88;14.00;;;;;;;;;;5051486;28;20525;-69
2022/03/21 10:02:08;;;;;;;23.15;13.18;;;;;;;;;;5051874;28;20029;-69
2022/03/21 10:04:34;;;;;;;22.98;13.75;;;;;;;;;;5050576;28;20025;-65
2022/03/21 10:07:00;;;;;;;23.38;13.93;;;;;;;;;;5052027;28;20062;-70
2022/03/21 10:09:25;;;;;;;22.60;14.13;;;;;;;;;;5054877;28;20206;-69
2022/03/21 10:11:58;;;;;;;22.48;13.07;;;;;;;;;;5055233;28;20509;-69
2022/03/21 10:14:32;;;;;;;24.63;13.48;;;;;;;;;;5054669;28;20033;-70
2022/03/21 10:17:03;;;;;;;26.20;14.18;;;;;;;;;;5055322;28;20040;-69
2022/03/21 10:19:42;;;;;;;22.80;14.02;;;;;;;;;;5054721;28;20423;-69
2022/03/21 10:22:10;;;;;;;23.35;13.65;;;;;;;;;;5055947;28;20045;-70
2022/03/21 10:24:40;;;;;;;25.70;14.05;;;;;;;;;;5054935;28;20447;-65
2022/03/21 10:27:24;;;;;;;23.95;13.80;;;;;;;;;;5055677;28;20052;-68
2022/03/21 10:29:51;;;;;;;27.05;14.10;;;;;;;;;;5055195;28;20037;-69
2022/03/21 10:32:30;;;;;;;28.13;14.05;;;;;;;;;;5055685;28;20037;-68
2022/03/21 10:35:30;;;;;;;24.75;13.57;;;;;;;;;;5053684;28;20227;-68
2022/03/21 10:37:58;;;;;;;23.80;13.63;;;;;;;;;;5038780;28;20514;-68
2022/03/21 10:40:31;;;;;;;24.40;13.50;;;;;;;;;;5055645;28;20094;-69
2022/03/21 10:43:06;;;;;;;20.88;13.73;;;;;;;;;;5054947;28;20036;-69
2022/03/21 10:45:45;;;;;;;23.80;13.75;;;;;;;;;;5055288;28;20098;-69
2022/03/21 10:48:12;;;;;;;24.60;14.30;;;;;;;;;;5055590;28;20032;-69
2022/03/21 10:50:47;;;;;;;24.08;14.30;;;;;;;;;;5054843;28;20032;-68
2022/03/21 10:53:27;;;;;;;22.38;13.32;;;;;;;;;;5055179;28;20443;-68
2022/03/21 10:56:10;;;;;;;23.77;13.57;;;;;;;;;;5053402;28;20505;-68
2022/03/21 10:58:47;;;;;;;21.05;13.23;;;;;;;;;;5055434;28;20025;-68
2022/03/21 11:01:18;;;;;;;21.08;13.38;;;;;;;;;;5053852;28;20068;-69
2022/03/21 11:03:49;;;;;;;25.77;14.25;;;;;;;;;;5054665;28;20075;-68
2022/03/21 11:06:14;;;;;;;;;;;;;;;;;;5055142;28;20036;-68
2022/03/21 11:08:40;;;;;;;24.33;13.18;;;;;;;;;;5054298;28;19912;-69
2022/03/21 11:11:08;;;;;;;25.65;13.60;;;;;;;;;;5053530;28;20076;-69
2022/03/21 11:13:36;;;;;;;23.27;13.57;;;;;;;;;;5054897;28;20048;-69
2022/03/21 11:16:01;;;;;;;25.33;13.35;;;;;;;;;;5054187;28;20033;-69
2022/03/21 11:18:27;;;;;;;22.50;13.52;;;;;;;;;;5054948;28;20033;-68
2022/03/21 11:20:53;;;;;;;22.00;13.02;;;;;;;;;;5052804;28;20426;-69
2022/03/21 11:23:19;;;;;;;23.77;13.90;;;;;;;;;;5054854;28;20053;-68
2022/03/21 11:25:56;;;;;;;22.40;12.75;;;;;;;;;;5053904;28;20037;-69
2022/03/21 11:28:40;;;;;;;20.83;13.55;;;;;;;;;;5054862;28;20029;-68
2022/03/21 11:31:35;;;;;;;25.35;13.63;;;;;;;;;;5053691;28;20036;-69
2022/03/21 11:34:22;;;;;;;22.83;13.48;;;;;;;;;;5054022;28;20497;-69
2022/03/21 11:36:54;;;;;;;20.88;13.02;;;;;;;;;;5052392;28;20124;-67
2022/03/21 11:39:20;;;;;;;22.05;14.30;;;;;;;;;;5054254;28;20068;-67
2022/03/21 11:42:06;;;;;;;24.85;13.52;;;;;;;;;;5053723;28;20032;-67
2022/03/21 11:44:32;;;;;;;23.70;13.93;;;;;;;;;;5054356;28;20033;-67
2022/03/21 11:47:23;;;;;;;18.98;13.18;;;;;;;;;;5053485;28;20041;-67
2022/03/21 11:49:50;;;;;;;23.35;13.13;;;;;;;;;;5053372;28;20025;-67
2022/03/21 11:52:16;;;;;;;18.27;12.75;;;;;;;;;;5054226;28;20037;-68
2022/03/21 11:54:42;;;;;;;20.95;12.38;;;;;;;;;;5053374;28;20047;-67
2022/03/21 11:57:24;;;;;;;20.05;11.52;;;;;;;;;;5054103;28;20025;-69
2022/03/21 11:59:52;;;;;;;20.35;12.50;;;;;;;;;;5051978;28;20032;-68
2022/03/21 12:02:17;;;;;;;18.42;12.25;;;;;;;;;;5054008;28;20455;-68
2022/03/21 12:05:02;;;;;;;18.30;11.93;;;;;;;;;;5053280;28;20032;-66
2022/03/21 12:07:30;;;;;;;18.52;11.40;;;;;;;;;;5053932;28;20032;-69
2022/03/21 12:09:57;;;;;;;18.10;10.18;;;;;;;;;;5053195;28;20028;-68
2022/03/21 12:12:43;;;;;;;18.00;10.27;;;;;;;;;;5052604;28;20064;-68
2022/03/21 12:15:17;;;;;;;15.07;9.65;;;;;;;;;;5053256;28;20078;-69
2022/03/21 12:17:50;;;;;;;16.02;9.93;;;;;;;;;;5053111;28;20036;-67
2022/03/21 12:20:18;;;;;;;17.58;9.82;;;;;;;;;;5053614;28;20074;-69
2022/03/21 12:22:47;;;;;;;13.10;9.85;;;;;;;;;;5053049;28;20044;-68
2022/03/21 12:25:21;;;;;;;16.13;9.52;;;;;;;;;;5053380;28;20033;-68
2022/03/21 12:28:16;;;;;;;16.85;9.70;;;;;;;;;;5052907;28;20420;-68
2022/03/21 12:30:42;;;;;;;15.35;9.55;;;;;;;;;;5053140;28;20037;-68
2022/03/21 12:33:13;;;;;;;16.00;9.85;;;;;;;;;;5053678;28;20107;-68
2022/03/21 12:35:47;;;;;;;15.05;10.15;;;;;;;;;;5053163;28;20020;-68
2022/03/21 12:38:17;;;;;;;13.98;9.10;;;;;;;;;;5053324;28;20037;-68
2022/03/21 12:41:00;;;;;;;14.77;9.75;;;;;;;;;;5051126;28;20398;-63
2022/03/21 12:43:40;;;;;;;17.50;9.50;;;;;;;;;;5052000;28;20489;-69
2022/03/21 12:46:09;;;;;;;14.38;8.68;;;;;;;;;;5051247;28;20029;-68
2022/03/21 12:48:37;;;;;;;13.15;9.10;;;;;;;;;;5053261;28;20025;-68
2022/03/21 12:51:05;;;;;;;15.52;9.30;;;;;;;;;;5052713;28;20071;-68
2022/03/21 12:53:45;;;;;;;13.25;9.10;;;;;;;;;;5035083;28;20056;-66
2022/03/21 12:56:16;;;;;;;14.52;8.73;;;;;;;;;;5051520;28;20408;-69
2022/03/21 12:58:47;;;;;;;14.77;8.70;;;;;;;;;;5052827;28;20116;-68
2022/03/21 13:01:17;;;;;;;12.63;8.20;;;;;;;;;;5053252;28;20481;-67
2022/03/21 13:03:43;;;;;;;13.40;8.10;;;;;;;;;;5051654;28;20124;-70
2022/03/21 13:11:29;;;;;;;13.02;8.15;;;;;;;;;;5052769;28;20029;-67
2022/03/21 13:13:57;;;;;;;12.95;7.60;;;;;;;;;;5052077;28;20070;-67
2022/03/21 13:16:24;;;;;;;15.43;7.40;;;;;;;;;;5052360;28;20105;-68
2022/03/21 13:18:50;;;;;;;12.20;7.30;;;;;;;;;;5051776;28;20037;-66
2022/03/21 13:21:18;;;;;;;14.60;8.10;;;;;;;;;;5051840;28;20082;-69
2022/03/21 13:23:46;;;;;;;9.95;7.65;;;;;;;;;;5052126;28;20387;-68
2022/03/21 13:26:18;;;;;;;14.82;8.07;;;;;;;;;;5052314;28;20115;-69
2022/03/21 13:28:45;;;;;;;13.52;7.85;;;;;;;;;;5052134;28;20104;-71
2022/03/21 13:31:18;;;;;;;12.52;8.10;;;;;;;;;;5050516;28;20033;-69
2022/03/21 13:33:58;;;;;;;9.57;6.78;;;;;;;;;;5052469;28;20033;-69
2022/03/21 13:36:25;;;;;;;10.80;7.57;;;;;;;;;;5052682;28;20032;-68
2022/03/21 13:39:13;;;;;;;12.75;7.43;;;;;;;;;;5051734;28;20485;-67
2022/03/21 13:41:52;;;;;;;12.23;7.57;;;;;;;;;;5052365;28;20033;-70
2022/03/21 13:44:18;;;;;;;12.68;7.30;;;;;;;;;;5051522;28;20024;-70
2022/03/21 13:47:02;;;;;;;13.73;7.72;;;;;;;;;;5051828;28;20474;-68
2022/03/21 13:49:54;;;;;;;13.10;7.63;;;;;;;;;;5052463;28;20036;-69
2022/03/21 13:52:38;;;;;;;12.95;7.90;;;;;;;;;;5052363;28;20059;-68
2022/03/21 13:55:03;;;;;;;12.35;7.38;;;;;;;;;;5051535;28;20056;-68
2022/03/21 13:57:29;;;;;;;11.43;7.22;;;;;;;;;;5050889;28;20029;-69
2022/03/21 14:00:17;;;;;;;13.50;7.68;;;;;;;;;;5051168;28;20029;-68
2022/03/21 14:02:43;;;;;;;12.50;7.70;;;;;;;;;;5051885;28;20114;-70
2022/03/21 14:05:26;;;;;;;15.88;7.50;;;;;;;;;;5051286;28;20041;-69
2022/03/21 14:08:17;;;;;;;13.05;7.30;;;;;;;;;;5051625;28;20033;-69
2022/03/21 14:10:46;;;;;;;;;;;;;;;;;;5052336;28;20086;-68
2022/03/21 14:13:17;;;;;;;10.73;7.20;;;;;;;;;;5051408;28;19913;-68
2022/03/21 14:15:44;;;;;;;12.93;7.05;;;;;;;;;;5051939;28;20497;-69
2022/03/21 14:18:10;;;;;;;10.73;7.20;;;;;;;;;;5051008;28;20037;-68
2022/03/21 14:20:37;;;;;;;13.93;7.25;;;;;;;;;;5051840;28;20037;-69
2022/03/21 14:23:03;;;;;;;14.00;7.10;;;;;;;;;;5051023;28;20045;-70
2022/03/21 14:28:12;;;;;;;12.65;7.00;;;;;;;;;;5051354;28;20127;-69
2022/03/21 14:30:37;;;;;;;12.45;6.80;;;;;;;;;;5051529;28;20044;-68
2022/03/21 14:33:03;;;;;;;11.02;7.00;;;;;;;;;;5051165;28;20036;-69
2022/03/21 14:35:28;;;;;;;14.63;7.38;;;;;;;;;;5051372;28;20037;-68
2022/03/21 14:37:54;;;;;;;14.57;7.32;;;;;;;;;;5050922;28;20044;-69
2022/03/21 14:40:19;;;;;;;10.18;7.15;;;;;;;;;;5050487;28;20033;-69
2022/03/21 14:42:46;;;;;;;14.32;7.65;;;;;;;;;;5051972;28;20463;-68
2022/03/21 14:45:12;;;;;;;12.02;6.68;;;;;;;;;;5050284;28;20033;-67
2022/03/21 14:47:38;;;;;;;11.90;7.45;;;;;;;;;;5051093;28;20025;-69
2022/03/21 14:50:05;;;;;;;12.95;7.88;;;;;;;;;;5049451;28;20486;-69
2022/03/21 14:52:30;;;;;;;10.82;6.82;;;;;;;;;;5051326;28;20501;-69
2022/03/21 14:54:55;;;;;;;12.02;6.78;;;;;;;;;;5052802;28;20052;-70
2022/03/21 14:57:21;;;;;;;13.55;6.90;;;;;;;;;;5055230;28;20036;-70